createdAt,value
2017-09-17T00:01:45.849Z,77.60
2017-09-17T00:04:12.795Z,77.50
2017-09-17T00:06:39.703Z,77.40
2017-09-17T00:09:06.688Z,76.80
2017-09-17T00:11:33.601Z,77.30
2017-09-17T00:14:01.262Z,77.10
2017-09-17T00:16:28.241Z,77.00
2017-09-17T00:18:55.204Z,76.40
2017-09-17T00:21:22.137Z,75.80
2017-09-17T00:23:49.085Z,75.40
2017-09-17T00:26:15.984Z,76.00
2017-09-17T00:28:42.995Z,77.60
2017-09-17T00:31:09.920Z,78.00
2017-09-17T00:33:36.921Z,78.40
2017-09-17T00:36:03.826Z,77.90
2017-09-17T00:38:30.724Z,77.70
2017-09-17T00:40:57.665Z,77.40
2017-09-17T00:43:24.560Z,77.10
2017-09-17T00:45:51.584Z,77.10
2017-09-17T00:48:18.507Z,76.90
2017-09-17T00:50:45.534Z,76.90
2017-09-17T00:53:12.532Z,76.40
2017-09-17T00:55:39.580Z,76.50
2017-09-17T00:58:06.520Z,76.70
2017-09-17T01:00:33.461Z,76.60
2017-09-17T01:03:00.435Z,76.60
2017-09-17T01:05:27.359Z,76.50
2017-09-17T01:07:54.248Z,76.10
2017-09-17T01:10:21.296Z,76.20
2017-09-17T01:12:48.254Z,76.00
2017-09-17T01:15:15.210Z,75.90
2017-09-17T01:17:42.151Z,76.20
2017-09-17T01:20:09.162Z,76.00
2017-09-17T01:22:36.041Z,76.00
2017-09-17T01:25:03.004Z,76.20
2017-09-17T01:27:30.049Z,76.40
2017-09-17T01:29:56.928Z,76.40
2017-09-17T01:32:23.801Z,76.30
2017-09-17T01:34:51.555Z,76.00
2017-09-17T01:37:18.442Z,75.90
2017-09-17T01:39:45.411Z,76.40
2017-09-17T01:42:12.296Z,76.10
2017-09-17T01:44:39.262Z,76.40
2017-09-17T01:47:06.155Z,76.40
2017-09-17T01:49:33.057Z,76.90
2017-09-17T01:51:59.993Z,76.30
2017-09-17T01:54:27.643Z,76.60
2017-09-17T01:56:55.336Z,76.50
2017-09-17T01:59:22.194Z,76.40
2017-09-17T02:01:49.159Z,76.50
2017-09-17T02:04:16.079Z,76.40
2017-09-17T02:06:43.022Z,76.90
2017-09-17T02:09:09.926Z,77.10
2017-09-17T02:11:36.850Z,76.80
2017-09-17T02:14:03.741Z,76.70
2017-09-17T02:16:31.389Z,76.60
2017-09-17T02:18:59.022Z,76.40
2017-09-17T02:21:26.021Z,76.60
2017-09-17T02:23:52.905Z,76.70
2017-09-17T02:26:19.796Z,77.10
2017-09-17T02:28:46.724Z,77.50
2017-09-17T02:31:13.668Z,77.00
2017-09-17T02:33:40.572Z,77.70
2017-09-17T02:36:07.485Z,77.60
2017-09-17T02:38:34.367Z,77.80
2017-09-17T02:41:01.401Z,78.40
2017-09-17T02:43:28.341Z,78.40
2017-09-17T02:45:55.216Z,78.30
2017-09-17T02:48:22.155Z,78.50
2017-09-17T02:50:49.077Z,78.60
2017-09-17T02:53:16.017Z,77.70
2017-09-17T02:55:42.903Z,77.30
2017-09-17T02:58:09.852Z,77.20
2017-09-17T03:00:36.748Z,76.90
2017-09-17T03:03:03.675Z,76.70
2017-09-17T03:05:30.625Z,76.90
2017-09-17T03:07:58.260Z,77.50
2017-09-17T03:10:25.157Z,76.80
2017-09-17T03:12:52.107Z,76.70
2017-09-17T03:15:18.971Z,76.50
2017-09-17T03:17:45.828Z,76.60
2017-09-17T03:20:12.783Z,76.40
2017-09-17T03:22:39.650Z,76.50
2017-09-17T03:25:06.555Z,76.40
2017-09-17T03:27:33.500Z,76.90
2017-09-17T03:30:00.442Z,77.30
2017-09-17T03:32:27.316Z,77.60
2017-09-17T03:34:54.288Z,78.50
2017-09-17T03:37:21.944Z,78.70
2017-09-17T03:39:48.872Z,78.70
2017-09-17T03:42:22.809Z,79.20
2017-09-17T03:44:50.525Z,79.90
2017-09-17T03:47:17.467Z,79.30
2017-09-17T03:49:44.439Z,79.80
2017-09-17T03:52:11.302Z,80.20
2017-09-17T03:54:38.233Z,80.20
2017-09-17T03:57:05.118Z,80.20
2017-09-17T03:59:32.119Z,79.90
2017-09-17T04:01:59.118Z,79.60
2017-09-17T04:04:26.057Z,79.40
2017-09-17T04:06:52.953Z,78.70
2017-09-17T04:09:19.863Z,79.00
2017-09-17T04:11:46.720Z,79.50
2017-09-17T04:14:13.654Z,79.00
2017-09-17T04:16:40.607Z,79.00
2017-09-17T04:19:07.549Z,78.90
2017-09-17T04:21:34.428Z,78.90
2017-09-17T04:24:01.388Z,78.90
2017-09-17T04:26:34.415Z,78.10
2017-09-17T04:29:02.848Z,78.90
2017-09-17T04:31:29.821Z,78.90
2017-09-17T04:33:56.735Z,79.00
2017-09-17T04:36:23.705Z,79.00
2017-09-17T04:38:50.577Z,79.20
2017-09-17T04:41:18.192Z,78.50
2017-09-17T04:43:45.145Z,78.50
2017-09-17T04:46:11.995Z,78.70
2017-09-17T04:48:38.895Z,78.90
2017-09-17T04:51:05.838Z,79.10
2017-09-17T04:53:32.793Z,78.80
2017-09-17T04:55:59.643Z,78.70
2017-09-17T04:58:26.519Z,78.70
2017-09-17T05:00:53.457Z,79.40
2017-09-17T05:03:20.380Z,79.90
2017-09-17T05:05:47.250Z,80.00
2017-09-17T05:08:14.252Z,79.80
2017-09-17T05:10:41.125Z,79.80
2017-09-17T05:13:07.991Z,79.60
2017-09-17T05:15:35.113Z,79.50
2017-09-17T05:18:01.976Z,79.10
2017-09-17T05:20:28.900Z,78.80
2017-09-17T05:22:55.764Z,78.90
2017-09-17T05:25:22.742Z,78.60
2017-09-17T05:27:49.623Z,78.50
2017-09-17T05:30:16.525Z,78.50
2017-09-17T05:32:43.443Z,79.10
2017-09-17T05:35:10.337Z,79.70
2017-09-17T05:37:38.087Z,81.20
2017-09-17T05:40:04.955Z,81.10
2017-09-17T05:42:32.555Z,81.30
2017-09-17T05:44:59.512Z,81.20
2017-09-17T05:47:26.418Z,81.00
2017-09-17T05:49:53.288Z,81.60
2017-09-17T05:52:20.244Z,81.60
2017-09-17T05:54:47.208Z,82.10
2017-09-17T05:57:14.066Z,81.90
2017-09-17T05:59:41.010Z,81.80
2017-09-17T06:02:10.383Z,81.90
2017-09-17T06:04:37.351Z,81.20
2017-09-17T06:07:19.113Z,81.30
2017-09-17T06:09:57.749Z,80.00
2017-09-17T06:12:26.327Z,78.90
2017-09-17T06:15:07.768Z,78.80
2017-09-17T06:17:48.975Z,79.40
2017-09-17T06:20:26.175Z,80.20
2017-09-17T06:23:09.817Z,80.10
2017-09-17T06:25:47.587Z,80.10
2017-09-17T06:28:17.832Z,80.00
2017-09-17T06:36:27.172Z,79.60
2017-09-17T06:39:09.527Z,79.40
2017-09-17T06:41:41.413Z,79.00
2017-09-17T06:44:08.837Z,79.00
2017-09-17T06:46:35.776Z,79.30
2017-09-17T06:49:05.206Z,78.60
2017-09-17T06:51:33.215Z,79.10
2017-09-17T06:54:00.906Z,78.20
2017-09-17T06:56:27.796Z,78.10
2017-09-17T06:58:57.877Z,78.60
2017-09-17T07:01:25.563Z,77.80
2017-09-17T07:03:55.537Z,77.80
2017-09-17T07:06:24.300Z,77.10
2017-09-17T07:08:55.726Z,76.70
2017-09-17T07:11:23.041Z,76.40
2017-09-17T07:13:53.075Z,75.10
2017-09-17T07:16:22.047Z,75.00
2017-09-17T07:18:49.827Z,75.80
2017-09-17T07:21:16.799Z,75.80
2017-09-17T07:23:47.016Z,75.70
2017-09-17T07:26:19.183Z,75.70
2017-09-17T07:28:47.442Z,75.40
2017-09-17T07:31:15.477Z,76.10
2017-09-17T07:33:46.642Z,75.80
2017-09-17T07:36:27.474Z,75.80
2017-09-17T07:39:09.479Z,75.50
2017-09-17T07:41:50.581Z,75.80
2017-09-17T07:44:19.404Z,76.10
2017-09-17T07:46:46.282Z,76.10
2017-09-17T07:49:13.254Z,75.60
2017-09-17T07:51:42.145Z,75.80
2017-09-17T07:54:09.132Z,75.20
2017-09-17T07:56:36.096Z,74.50
2017-09-17T07:59:15.595Z,74.20
2017-09-17T08:01:44.744Z,73.90
2017-09-17T08:04:22.394Z,74.10
2017-09-17T08:06:53.062Z,73.70
2017-09-17T08:09:31.220Z,74.30
2017-09-17T08:12:06.095Z,73.80
2017-09-17T08:14:33.461Z,74.00
2017-09-17T08:17:00.332Z,74.10
2017-09-17T08:19:27.199Z,74.90
2017-09-17T08:21:54.966Z,74.80
2017-09-17T08:24:21.888Z,74.10
2017-09-17T08:26:48.754Z,73.80
2017-09-17T08:29:27.572Z,74.90
2017-09-17T08:31:55.446Z,74.60
2017-09-17T08:34:22.334Z,74.70
2017-09-17T08:36:49.264Z,73.70
2017-09-17T08:39:16.125Z,73.40
2017-09-17T08:41:43.033Z,72.40
2017-09-17T08:44:10.754Z,72.30
2017-09-17T08:46:37.705Z,72.40
2017-09-17T08:49:04.580Z,71.70
2017-09-17T08:51:31.512Z,71.20
2017-09-17T08:53:58.474Z,71.20
2017-09-17T08:56:26.138Z,70.60
2017-09-17T08:58:53.125Z,69.80
2017-09-17T09:01:20.199Z,68.60
2017-09-17T09:03:47.065Z,68.00
2017-09-17T09:06:14.085Z,67.20
2017-09-17T09:08:41.100Z,64.60
2017-09-17T09:11:08.052Z,65.10
2017-09-17T09:13:34.932Z,64.00
2017-09-17T09:16:01.804Z,63.40
2017-09-17T09:18:28.757Z,63.80
2017-09-17T09:20:55.645Z,63.90
2017-09-17T09:23:22.590Z,64.60
2017-09-17T09:25:49.499Z,63.00
2017-09-17T09:28:16.397Z,61.40
2017-09-17T09:30:43.336Z,60.30
2017-09-17T09:33:10.217Z,59.90
2017-09-17T09:35:37.173Z,59.70
2017-09-17T09:38:04.132Z,58.50
2017-09-17T09:40:31.765Z,56.10
2017-09-17T09:42:58.723Z,56.10
2017-09-17T09:45:25.697Z,56.70
2017-09-17T09:47:53.336Z,56.70
2017-09-17T09:50:20.344Z,56.70
2017-09-17T09:52:47.217Z,57.10
2017-09-17T09:55:14.143Z,57.20
2017-09-17T09:57:41.141Z,56.50
2017-09-17T10:00:08.888Z,56.60
2017-09-17T10:02:35.832Z,56.30
2017-09-17T10:05:02.729Z,55.80
2017-09-17T10:07:32.418Z,55.90
2017-09-17T10:09:59.344Z,56.00
2017-09-17T10:12:30.890Z,54.70
2017-09-17T10:14:59.001Z,53.40
2017-09-17T10:17:25.854Z,53.30
2017-09-17T10:19:52.817Z,53.00
2017-09-17T10:22:21.275Z,51.80
2017-09-17T10:24:54.203Z,52.10
2017-09-17T10:27:21.140Z,51.90
2017-09-17T10:29:48.007Z,50.70
2017-09-17T10:35:03.262Z,52.10
2017-09-17T10:37:42.646Z,51.60
2017-09-17T10:40:23.697Z,52.10
2017-09-17T10:43:08.074Z,49.40
2017-09-17T10:45:35.890Z,48.70
2017-09-17T10:48:20.341Z,49.20
2017-09-17T10:51:03.714Z,47.50
2017-09-17T10:53:41.278Z,48.70
2017-09-17T10:56:14.324Z,47.60
2017-09-17T10:58:51.563Z,47.10
2017-09-17T11:01:25.820Z,47.80
2017-09-17T11:03:53.516Z,46.80
2017-09-17T11:06:20.453Z,47.90
2017-09-17T11:08:48.051Z,48.70
2017-09-17T11:11:18.055Z,48.70
2017-09-17T11:13:46.478Z,48.70
2017-09-17T11:16:15.187Z,47.60
2017-09-17T11:18:44.424Z,46.80
2017-09-17T11:21:12.456Z,48.50
2017-09-17T11:23:40.180Z,48.80
2017-09-17T11:26:07.134Z,48.70
2017-09-17T11:28:43.853Z,48.30
2017-09-17T11:31:10.924Z,48.20
2017-09-17T11:33:37.859Z,46.80
2017-09-17T11:36:06.890Z,48.40
2017-09-17T11:38:35.525Z,48.20
2017-09-17T11:41:02.501Z,48.00
2017-09-17T11:43:29.751Z,48.20
2017-09-17T11:45:56.795Z,48.00
2017-09-17T11:48:27.107Z,47.90
2017-09-17T11:50:54.179Z,47.90
2017-09-17T11:53:21.056Z,48.90
2017-09-17T11:55:48.042Z,48.10
2017-09-17T11:58:15.230Z,49.30
2017-09-17T12:00:42.207Z,50.20
2017-09-17T12:03:09.173Z,48.40
2017-09-17T12:05:36.048Z,47.80
2017-09-17T12:08:03.025Z,47.10
2017-09-17T12:10:30.001Z,47.20
2017-09-17T12:12:56.957Z,48.20
2017-09-17T12:15:24.041Z,47.20
2017-09-17T12:17:51.092Z,47.80
2017-09-17T12:20:18.026Z,46.30
2017-09-17T12:22:45.946Z,46.20
2017-09-17T12:25:23.379Z,46.20
2017-09-17T12:27:50.401Z,44.00
2017-09-17T12:30:17.295Z,44.90
2017-09-17T12:32:44.936Z,45.40
2017-09-17T12:35:12.639Z,45.40
2017-09-17T12:37:39.595Z,45.40
2017-09-17T12:40:06.579Z,45.20
2017-09-17T12:42:33.556Z,46.50
2017-09-17T12:45:01.261Z,43.80
2017-09-17T12:47:28.257Z,43.90
2017-09-17T12:49:56.027Z,44.00
2017-09-17T12:52:22.937Z,44.00
2017-09-17T12:54:49.919Z,45.20
2017-09-17T12:57:17.584Z,43.60
2017-09-17T12:59:45.330Z,43.70
2017-09-17T13:02:12.204Z,43.80
2017-09-17T13:04:39.940Z,42.40
2017-09-17T13:07:07.026Z,42.40
2017-09-17T13:09:33.938Z,42.90
2017-09-17T13:12:01.672Z,41.90
2017-09-17T13:14:28.628Z,42.10
2017-09-17T13:16:55.655Z,41.10
2017-09-17T13:19:22.640Z,42.60
2017-09-17T13:21:49.573Z,42.60
2017-09-17T13:24:16.560Z,43.50
2017-09-17T13:26:44.178Z,43.70
2017-09-17T13:29:11.999Z,43.10
2017-09-17T13:31:41.747Z,43.20
2017-09-17T13:34:08.661Z,44.90
2017-09-17T13:36:35.608Z,45.40
2017-09-17T13:39:02.753Z,45.10
2017-09-17T13:41:29.787Z,43.50
2017-09-17T13:43:57.638Z,42.60
2017-09-17T13:46:24.664Z,42.60
2017-09-17T13:48:51.753Z,43.00
2017-09-17T13:51:19.485Z,42.90
2017-09-17T13:53:46.514Z,42.80
2017-09-17T13:56:13.493Z,42.00
2017-09-17T13:58:40.533Z,41.50
2017-09-17T14:01:22.410Z,41.90
2017-09-17T14:03:52.200Z,42.80
2017-09-17T14:06:19.149Z,42.30
2017-09-17T14:08:53.866Z,43.60
2017-09-17T14:11:23.637Z,43.70
2017-09-17T14:13:51.474Z,44.40
2017-09-17T14:16:18.434Z,44.40
2017-09-17T14:18:45.513Z,43.90
2017-09-17T14:21:15.244Z,45.30
2017-09-17T14:23:43.089Z,45.30
2017-09-17T14:26:13.441Z,45.70
2017-09-17T14:28:40.489Z,45.70
2017-09-17T14:31:10.501Z,46.20
2017-09-17T14:33:39.527Z,46.80
2017-09-17T14:36:06.482Z,46.80
2017-09-17T14:38:36.251Z,46.60
2017-09-17T14:41:07.412Z,46.20
2017-09-17T14:43:34.552Z,47.20
2017-09-17T14:46:05.104Z,46.80
2017-09-17T14:48:35.946Z,45.90
2017-09-17T14:51:05.092Z,44.90
2017-09-17T14:53:37.121Z,45.80
2017-09-17T14:56:05.119Z,45.90
2017-09-17T14:58:32.105Z,45.80
2017-09-17T15:00:59.061Z,44.90
2017-09-17T15:03:26.037Z,44.60
2017-09-17T15:05:54.668Z,44.90
2017-09-17T15:08:27.066Z,44.70
2017-09-17T15:10:55.629Z,44.80
2017-09-17T15:13:23.533Z,46.90
2017-09-17T15:15:51.756Z,46.90
2017-09-17T15:18:23.004Z,46.80
2017-09-17T15:20:51.278Z,46.80
2017-09-17T15:23:21.767Z,46.30
2017-09-17T15:25:51.764Z,46.30
2017-09-17T15:28:20.955Z,46.90
2017-09-17T15:30:48.665Z,46.20
2017-09-17T15:33:17.003Z,46.10
2017-09-17T15:35:44.658Z,46.90
2017-09-17T15:38:14.807Z,47.80
2017-09-17T15:40:42.544Z,48.70
2017-09-17T15:43:11.304Z,48.10
2017-09-17T15:45:44.192Z,48.40
2017-09-17T15:48:12.677Z,48.70
2017-09-17T15:50:43.020Z,49.00
2017-09-17T15:53:11.816Z,49.90
2017-09-17T15:55:40.773Z,49.80
2017-09-17T15:58:07.901Z,50.20
2017-09-17T16:00:34.835Z,51.20
2017-09-17T16:03:01.906Z,50.60
2017-09-17T16:05:32.088Z,51.60
2017-09-17T16:07:59.080Z,52.00
2017-09-17T16:10:26.157Z,51.70
2017-09-17T16:12:53.919Z,52.10
2017-09-17T16:15:32.512Z,51.60
2017-09-17T16:17:59.972Z,51.80
2017-09-17T16:20:27.718Z,52.10
2017-09-17T16:22:58.610Z,53.00
2017-09-17T16:25:25.643Z,53.10
2017-09-17T16:27:52.635Z,53.20
2017-09-17T16:30:19.600Z,53.30
2017-09-17T16:32:46.570Z,53.60
2017-09-17T16:35:13.559Z,53.10
2017-09-17T16:37:41.241Z,53.10
2017-09-17T16:40:08.310Z,53.10
2017-09-17T16:42:36.152Z,53.90
2017-09-17T16:45:03.121Z,54.10
2017-09-17T16:47:30.188Z,54.50
2017-09-17T16:49:57.344Z,54.40
2017-09-17T16:52:24.546Z,54.40
2017-09-17T16:54:53.153Z,55.10
2017-09-17T16:57:36.612Z,55.00
2017-09-17T17:00:11.802Z,54.20
2017-09-17T17:02:39.691Z,55.50
2017-09-17T17:05:20.668Z,55.40
2017-09-17T17:08:01.287Z,55.70
2017-09-17T17:10:40.986Z,56.10
2017-09-17T17:13:09.168Z,56.80
2017-09-17T17:15:50.976Z,56.90
2017-09-17T17:18:33.905Z,57.90
2017-09-17T17:21:14.679Z,57.90
2017-09-17T17:23:56.666Z,58.40
2017-09-17T17:26:38.492Z,58.90
2017-09-17T17:29:20.370Z,60.20
2017-09-17T17:31:59.409Z,61.90
2017-09-17T17:34:42.399Z,62.70
2017-09-17T17:37:25.001Z,63.40
2017-09-17T17:39:52.898Z,64.10
2017-09-17T17:42:19.845Z,63.40
2017-09-17T17:44:46.917Z,63.10
2017-09-17T17:47:14.696Z,62.50
2017-09-17T17:49:41.772Z,62.40
2017-09-17T17:52:08.855Z,62.50
2017-09-17T17:54:35.813Z,62.60
2017-09-17T17:57:02.745Z,63.30
2017-09-17T17:59:29.741Z,64.60
2017-09-17T18:01:56.703Z,66.10
2017-09-17T18:04:23.695Z,65.80
2017-09-17T18:06:50.696Z,65.10
2017-09-17T18:09:18.850Z,66.10
2017-09-17T18:11:45.878Z,66.80
2017-09-17T18:14:12.786Z,67.40
2017-09-17T18:16:39.770Z,67.30
2017-09-17T18:19:06.827Z,66.80
2017-09-17T18:21:35.587Z,68.70
2017-09-17T18:24:03.208Z,68.70
2017-09-17T18:26:31.146Z,69.30
2017-09-17T18:28:58.930Z,69.30
2017-09-17T18:31:26.128Z,69.30
2017-09-17T18:33:53.207Z,70.40
2017-09-17T18:36:20.180Z,71.40
2017-09-17T18:38:47.177Z,71.70
2017-09-17T18:41:14.091Z,71.90
2017-09-17T18:43:41.056Z,71.70
2017-09-17T18:46:07.963Z,71.50
2017-09-17T18:48:35.622Z,72.40
2017-09-17T18:51:09.314Z,72.40
2017-09-17T18:53:36.209Z,72.40
2017-09-17T18:56:03.209Z,72.40
2017-09-17T18:58:30.909Z,71.90
2017-09-17T19:00:57.864Z,72.40
2017-09-17T19:03:24.802Z,72.90
2017-09-17T19:05:52.607Z,72.70
2017-09-17T19:08:19.733Z,72.80
2017-09-17T19:10:47.860Z,72.80
2017-09-17T19:13:16.532Z,73.10
2017-09-17T19:15:44.309Z,74.20
2017-09-17T19:18:11.334Z,73.40
2017-09-17T19:20:40.287Z,73.30
2017-09-17T19:23:07.240Z,73.90
2017-09-17T19:25:48.087Z,73.30
2017-09-17T19:28:24.202Z,73.10
2017-09-17T19:30:51.143Z,73.90
2017-09-17T19:33:20.337Z,74.10
2017-09-17T19:35:47.432Z,75.20
2017-09-17T19:38:14.331Z,75.10
2017-09-17T19:40:41.350Z,75.30
2017-09-17T19:43:08.289Z,74.90
2017-09-17T19:45:35.241Z,75.60
2017-09-17T19:48:02.964Z,75.10
2017-09-17T19:50:33.055Z,75.40
2017-09-17T19:53:00.024Z,75.40
2017-09-17T19:55:26.900Z,75.60
2017-09-17T19:57:59.264Z,74.90
2017-09-17T20:00:26.246Z,74.80
2017-09-17T20:02:53.128Z,74.70
2017-09-17T20:05:20.079Z,74.70
2017-09-17T20:07:49.477Z,75.50
2017-09-17T20:10:21.415Z,76.00
2017-09-17T20:12:48.303Z,76.00
2017-09-17T20:15:22.880Z,76.00
2017-09-17T20:18:01.488Z,75.20
2017-09-17T20:20:36.213Z,74.80
2017-09-17T20:23:15.944Z,75.00
2017-09-17T20:25:56.858Z,74.50
2017-09-17T20:28:25.999Z,75.30
2017-09-17T20:30:52.941Z,75.20
2017-09-17T20:33:19.949Z,75.60
2017-09-17T20:35:46.852Z,75.80
2017-09-17T20:38:13.884Z,75.40
2017-09-17T20:40:40.952Z,74.80
2017-09-17T20:43:07.933Z,74.60
2017-09-17T20:45:35.021Z,74.80
2017-09-17T20:48:03.435Z,74.50
2017-09-17T20:50:30.394Z,74.20
2017-09-17T20:52:58.036Z,75.00
2017-09-17T20:55:25.739Z,75.70
2017-09-17T20:57:52.732Z,74.90
2017-09-17T21:00:19.607Z,74.90
2017-09-17T21:02:47.250Z,75.40
2017-09-17T21:05:14.255Z,75.40
2017-09-17T21:07:41.168Z,75.60
2017-09-17T21:10:08.147Z,75.50
2017-09-17T21:12:35.088Z,75.20
2017-09-17T21:15:02.065Z,75.60
2017-09-17T21:20:04.796Z,75.80
2017-09-17T21:22:31.690Z,75.60
2017-09-17T21:24:58.570Z,76.00
2017-09-17T21:27:25.642Z,76.10
2017-09-17T21:29:52.532Z,76.30
2017-09-17T21:32:19.479Z,76.30
2017-09-17T21:34:46.372Z,76.30
2017-09-17T21:37:14.075Z,75.80
2017-09-17T21:39:41.030Z,75.70
2017-09-17T21:42:07.903Z,75.60
2017-09-17T21:44:34.901Z,75.60
2017-09-17T21:47:01.803Z,75.50
2017-09-17T21:49:28.733Z,75.60
2017-09-17T21:51:55.696Z,75.50
2017-09-17T21:54:22.632Z,75.70
2017-09-17T21:56:49.536Z,75.40
2017-09-17T21:59:16.548Z,75.50
2017-09-17T22:01:43.474Z,75.20
2017-09-17T22:04:10.449Z,75.20
2017-09-17T22:06:38.136Z,75.20
2017-09-17T22:09:05.054Z,75.10
2017-09-17T22:11:32.020Z,75.00
2017-09-17T22:13:58.920Z,75.10
2017-09-17T22:16:25.814Z,75.50
2017-09-17T22:18:52.774Z,76.00
2017-09-17T22:21:19.736Z,76.10
2017-09-17T22:23:46.689Z,76.50
2017-09-17T22:26:13.636Z,76.40
2017-09-17T22:28:40.544Z,76.10
2017-09-17T22:31:07.501Z,76.00
2017-09-17T22:33:34.499Z,75.80
2017-09-17T22:36:01.476Z,75.80
2017-09-17T22:38:29.218Z,76.10
2017-09-17T22:40:56.113Z,76.10
2017-09-17T22:43:23.039Z,75.70
2017-09-17T22:45:50.001Z,76.00
2017-09-17T22:48:16.888Z,76.10
2017-09-17T22:50:43.852Z,75.80
2017-09-17T22:53:10.822Z,75.40
2017-09-17T22:55:37.728Z,75.50
2017-09-17T22:58:04.710Z,75.40
2017-09-17T23:00:32.354Z,75.70
2017-09-17T23:02:59.251Z,75.60
2017-09-17T23:05:26.221Z,75.60
2017-09-17T23:07:53.160Z,75.30
2017-09-17T23:10:20.140Z,75.00
2017-09-17T23:12:47.102Z,75.50
2017-09-17T23:15:14.966Z,75.40
2017-09-17T23:17:42.791Z,75.40
2017-09-17T23:20:09.656Z,75.70
2017-09-17T23:22:36.521Z,75.90
2017-09-17T23:25:03.493Z,76.20
2017-09-17T23:27:30.378Z,76.20
2017-09-17T23:29:57.396Z,75.90
2017-09-17T23:32:24.266Z,75.80
2017-09-17T23:34:51.215Z,76.00
2017-09-17T23:37:18.226Z,75.90
2017-09-17T23:39:45.090Z,75.80
2017-09-17T23:42:12.353Z,76.00
2017-09-17T23:44:39.228Z,75.70
2017-09-17T23:47:06.204Z,75.80
2017-09-17T23:49:35.725Z,75.60
2017-09-17T23:52:02.649Z,75.90
2017-09-17T23:54:30.363Z,76.70
2017-09-17T23:56:57.271Z,76.70
2017-09-17T23:59:24.172Z,76.90
